createdAt,value
2017-08-21T00:00:37.547Z,13.91
2017-08-21T00:01:18.073Z,13.99
2017-08-21T00:01:58.613Z,13.92
2017-08-21T00:02:39.149Z,14
2017-08-21T00:03:19.683Z,13.89
2017-08-21T00:04:00.218Z,13.99
2017-08-21T00:04:40.761Z,13.99
2017-08-21T00:05:21.298Z,13.89
2017-08-21T00:06:01.837Z,13.95
2017-08-21T00:06:42.371Z,14.06
2017-08-21T00:07:22.929Z,14.07
2017-08-21T00:08:03.442Z,14.02
2017-08-21T00:08:43.986Z,13.92
2017-08-21T00:09:24.523Z,13.99
2017-08-21T00:10:05.063Z,13.99
2017-08-21T00:10:45.610Z,13.97
2017-08-21T00:11:26.137Z,14.03
2017-08-21T00:12:06.682Z,13.91
2017-08-21T00:12:47.202Z,14.04
2017-08-21T00:13:27.740Z,14.02
2017-08-21T00:14:08.277Z,13.89
2017-08-21T00:14:48.822Z,13.96
2017-08-21T00:15:29.349Z,13.96
2017-08-21T00:16:09.885Z,13.92
2017-08-21T00:16:50.423Z,13.95
2017-08-21T00:17:30.966Z,13.99
2017-08-21T00:18:11.507Z,13.96
2017-08-21T00:18:52.047Z,13.91
2017-08-21T00:19:32.589Z,13.95
2017-08-21T00:20:13.124Z,13.96
2017-08-21T00:20:53.654Z,13.99
2017-08-21T00:21:34.181Z,13.92
2017-08-21T00:22:14.725Z,13.92
2017-08-21T00:22:55.261Z,13.92
2017-08-21T00:23:35.802Z,13.92
2017-08-21T00:24:16.395Z,13.87
2017-08-21T00:24:56.934Z,13.92
2017-08-21T00:25:37.476Z,13.88
2017-08-21T00:26:18.015Z,13.96
2017-08-21T00:26:58.554Z,13.84
2017-08-21T00:27:39.090Z,13.89
2017-08-21T00:28:19.633Z,13.85
2017-08-21T00:29:00.181Z,13.87
2017-08-21T00:29:40.719Z,13.88
2017-08-21T00:30:21.250Z,13.88
2017-08-21T00:31:01.788Z,13.87
2017-08-21T00:31:42.331Z,13.79
2017-08-21T00:32:22.872Z,13.82
2017-08-21T00:33:03.412Z,13.81
2017-08-21T00:33:43.948Z,13.84
2017-08-21T00:34:24.485Z,13.82
2017-08-21T00:35:05.088Z,13.84
2017-08-21T00:35:45.544Z,13.82
2017-08-21T00:36:26.087Z,13.78
2017-08-21T00:37:06.626Z,13.82
2017-08-21T00:37:47.168Z,13.81
2017-08-21T00:38:27.707Z,13.75
2017-08-21T00:39:08.245Z,13.79
2017-08-21T00:39:48.792Z,13.81
2017-08-21T00:40:29.328Z,13.87
2017-08-21T00:41:09.869Z,13.82
2017-08-21T00:41:50.407Z,13.82
2017-08-21T00:42:30.946Z,13.82
2017-08-21T00:43:11.481Z,13.75
2017-08-21T00:43:52.019Z,13.79
2017-08-21T00:44:32.552Z,13.84
2017-08-21T00:45:13.098Z,13.82
2017-08-21T00:45:53.637Z,13.79
2017-08-21T00:46:34.173Z,13.78
2017-08-21T00:47:14.699Z,13.79
2017-08-21T00:47:55.242Z,13.77
2017-08-21T00:48:35.772Z,13.7
2017-08-21T00:49:16.313Z,13.77
2017-08-21T00:49:56.851Z,13.71
2017-08-21T00:50:37.376Z,13.71
2017-08-21T00:51:17.925Z,13.73
2017-08-21T00:51:58.464Z,13.67
2017-08-21T00:52:39.017Z,13.66
2017-08-21T00:53:19.539Z,13.71
2017-08-21T00:54:00.078Z,13.66
2017-08-21T00:54:40.613Z,13.69
2017-08-21T00:55:21.141Z,13.67
2017-08-21T00:56:01.671Z,13.67
2017-08-21T00:56:42.207Z,13.66
2017-08-21T00:57:22.743Z,13.67
2017-08-21T00:58:03.291Z,13.7
2017-08-21T00:58:43.832Z,13.66
2017-08-21T00:59:24.403Z,13.67
2017-08-21T01:00:04.958Z,13.63
2017-08-21T01:00:45.521Z,13.66
2017-08-21T01:01:26.059Z,13.64
2017-08-21T01:02:06.605Z,13.67
2017-08-21T01:02:47.142Z,13.64
2017-08-21T01:03:27.690Z,13.6
2017-08-21T01:04:08.272Z,13.67
2017-08-21T01:04:48.852Z,13.62
2017-08-21T01:05:29.376Z,13.62
2017-08-21T01:06:09.915Z,13.6
2017-08-21T01:06:50.452Z,13.57
2017-08-21T01:07:30.995Z,13.57
2017-08-21T01:08:11.534Z,13.6
2017-08-21T01:08:52.070Z,13.55
2017-08-21T01:09:32.613Z,13.55
2017-08-21T01:10:13.153Z,13.57
2017-08-21T01:10:53.689Z,13.59
2017-08-21T01:11:34.231Z,13.59
2017-08-21T01:12:14.768Z,13.46
2017-08-21T01:12:55.299Z,13.49
2017-08-21T01:13:35.841Z,13.49
2017-08-21T01:14:16.377Z,13.49
2017-08-21T01:14:56.918Z,13.57
2017-08-21T01:15:37.450Z,13.52
2017-08-21T01:16:17.984Z,13.51
2017-08-21T01:16:58.523Z,13.52
2017-08-21T01:17:39.063Z,13.44
2017-08-21T01:18:19.602Z,13.41
2017-08-21T01:19:00.139Z,13.46
2017-08-21T01:19:40.679Z,13.46
2017-08-21T01:20:21.209Z,13.42
2017-08-21T01:21:01.732Z,13.44
2017-08-21T01:21:42.268Z,13.42
2017-08-21T01:22:22.807Z,13.42
2017-08-21T01:23:03.342Z,13.42
2017-08-21T01:23:43.883Z,13.46
2017-08-21T01:24:24.419Z,13.42
2017-08-21T01:25:04.950Z,13.39
2017-08-21T01:25:45.490Z,13.45
2017-08-21T01:26:26.028Z,13.45
2017-08-21T01:27:06.563Z,13.39
2017-08-21T01:27:47.093Z,13.38
2017-08-21T01:28:27.640Z,13.42
2017-08-21T01:29:08.180Z,13.42
2017-08-21T01:29:48.713Z,13.46
2017-08-21T01:30:29.252Z,13.49
2017-08-21T01:31:09.785Z,13.44
2017-08-21T01:31:50.336Z,13.44
2017-08-21T01:32:30.909Z,13.38
2017-08-21T01:33:11.452Z,13.42
2017-08-21T01:33:51.990Z,13.39
2017-08-21T01:34:32.530Z,13.42
2017-08-21T01:35:13.091Z,13.42
2017-08-21T01:35:53.623Z,13.44
2017-08-21T01:36:34.160Z,13.39
2017-08-21T01:37:14.698Z,13.39
2017-08-21T01:37:55.241Z,13.44
2017-08-21T01:38:35.773Z,13.45
2017-08-21T01:39:16.302Z,13.38
2017-08-21T01:39:56.842Z,13.44
2017-08-21T01:40:37.378Z,13.41
2017-08-21T01:41:17.924Z,13.33
2017-08-21T01:41:58.459Z,13.33
2017-08-21T01:42:39.003Z,13.42
2017-08-21T01:43:19.543Z,13.33
2017-08-21T01:44:00.071Z,13.42
2017-08-21T01:44:40.615Z,13.3
2017-08-21T01:45:21.152Z,13.3
2017-08-21T01:46:01.693Z,13.29
2017-08-21T01:46:42.228Z,13.29
2017-08-21T01:47:22.759Z,13.29
2017-08-21T01:48:03.299Z,13.33
2017-08-21T01:48:43.845Z,13.44
2017-08-21T01:49:24.381Z,13.3
2017-08-21T01:50:04.916Z,13.28
2017-08-21T01:50:45.454Z,13.28
2017-08-21T01:51:25.993Z,13.39
2017-08-21T01:52:06.532Z,13.38
2017-08-21T01:52:47.069Z,13.28
2017-08-21T01:53:27.611Z,13.32
2017-08-21T01:54:08.155Z,13.28
2017-08-21T01:54:48.692Z,13.3
2017-08-21T01:55:29.225Z,13.33
2017-08-21T01:56:09.771Z,13.39
2017-08-21T01:56:50.296Z,13.36
2017-08-21T01:57:30.840Z,13.28
2017-08-21T01:58:11.381Z,13.32
2017-08-21T01:58:51.920Z,13.28
2017-08-21T01:59:32.455Z,13.32
2017-08-21T02:00:12.984Z,13.3
2017-08-21T02:00:53.528Z,13.25
2017-08-21T02:01:34.062Z,13.22
2017-08-21T02:02:14.603Z,13.25
2017-08-21T02:02:55.147Z,13.3
2017-08-21T02:03:35.684Z,13.29
2017-08-21T02:04:16.221Z,13.28
2017-08-21T02:04:56.764Z,13.29
2017-08-21T02:05:37.298Z,13.38
2017-08-21T02:06:17.832Z,13.28
2017-08-21T02:06:58.366Z,13.28
2017-08-21T02:07:38.900Z,13.33
2017-08-21T02:08:19.438Z,13.3
2017-08-21T02:08:59.977Z,13.28
2017-08-21T02:09:40.518Z,13.28
2017-08-21T02:10:21.057Z,13.32
2017-08-21T02:11:01.593Z,13.28
2017-08-21T02:11:42.136Z,13.28
2017-08-21T02:12:22.662Z,13.28
2017-08-21T02:13:03.202Z,13.26
2017-08-21T02:13:43.753Z,13.26
2017-08-21T02:14:24.282Z,13.25
2017-08-21T02:15:04.820Z,13.28
2017-08-21T02:15:45.344Z,13.26
2017-08-21T02:16:25.890Z,13.26
2017-08-21T02:17:06.418Z,13.25
2017-08-21T02:17:46.956Z,13.22
2017-08-21T02:18:27.516Z,13.25
2017-08-21T02:19:08.059Z,13.26
2017-08-21T02:19:48.601Z,13.26
2017-08-21T02:20:29.127Z,13.3
2017-08-21T02:21:09.657Z,13.23
2017-08-21T02:21:50.203Z,13.32
2017-08-21T02:22:30.735Z,13.33
2017-08-21T02:23:11.304Z,13.28
2017-08-21T02:23:51.835Z,13.3
2017-08-21T02:24:32.368Z,13.26
2017-08-21T02:25:12.901Z,13.28
2017-08-21T02:25:53.446Z,13.28
2017-08-21T02:27:47.571Z,13.28
2017-08-21T02:28:28.100Z,13.25
2017-08-21T02:29:08.640Z,13.25
2017-08-21T02:29:49.180Z,13.23
2017-08-21T02:30:29.721Z,13.33
2017-08-21T02:31:10.253Z,13.32
2017-08-21T02:31:50.778Z,13.28
2017-08-21T02:32:31.321Z,13.28
2017-08-21T02:33:11.846Z,13.28
2017-08-21T02:33:52.380Z,13.3
2017-08-21T02:34:32.916Z,13.28
2017-08-21T02:35:13.457Z,13.25
2017-08-21T02:35:53.989Z,13.28
2017-08-21T02:36:34.577Z,13.23
2017-08-21T02:37:15.102Z,13.26
2017-08-21T02:37:55.622Z,13.25
2017-08-21T02:38:36.162Z,13.26
2017-08-21T02:39:16.698Z,13.29
2017-08-21T02:39:57.236Z,13.28
2017-08-21T02:40:37.777Z,13.26
2017-08-21T02:41:18.297Z,13.26
2017-08-21T02:41:58.834Z,13.28
2017-08-21T02:42:39.376Z,13.26
2017-08-21T02:43:19.904Z,13.26
2017-08-21T02:44:00.439Z,13.26
2017-08-21T02:44:40.983Z,13.26
2017-08-21T02:45:21.524Z,13.26
2017-08-21T02:46:02.061Z,13.28
2017-08-21T02:46:42.600Z,13.22
2017-08-21T02:47:23.136Z,13.26
2017-08-21T02:48:03.672Z,13.28
2017-08-21T02:48:44.207Z,13.22
2017-08-21T02:49:24.741Z,13.25
2017-08-21T02:50:05.278Z,13.2
2017-08-21T02:50:45.814Z,13.26
2017-08-21T02:51:26.331Z,13.25
2017-08-21T02:52:06.869Z,13.19
2017-08-21T02:52:47.416Z,13.2
2017-08-21T02:53:27.948Z,13.22
2017-08-21T02:54:08.480Z,13.22
2017-08-21T02:54:49.020Z,13.22
2017-08-21T02:55:29.549Z,13.22
2017-08-21T02:56:10.137Z,13.2
2017-08-21T02:56:50.657Z,13.2
2017-08-21T02:57:31.192Z,13.15
2017-08-21T02:58:11.728Z,13.17
2017-08-21T02:58:52.264Z,13.17
2017-08-21T02:59:32.799Z,13.17
2017-08-21T03:00:13.361Z,13.19
2017-08-21T03:00:53.898Z,13.22
2017-08-21T03:01:34.438Z,13.17
2017-08-21T03:02:14.965Z,13.23
2017-08-21T03:02:55.499Z,13.17
2017-08-21T03:03:36.035Z,13.15
2017-08-21T03:04:16.572Z,13.14
2017-08-21T03:04:57.112Z,13.14
2017-08-21T03:05:37.643Z,13.19
2017-08-21T03:06:18.180Z,13.25
2017-08-21T03:06:58.715Z,13.17
2017-08-21T03:07:39.251Z,13.19
2017-08-21T03:08:19.787Z,13.11
2017-08-21T03:09:00.328Z,13.23
2017-08-21T03:09:40.866Z,13.17
2017-08-21T03:10:21.402Z,13.14
2017-08-21T03:11:01.932Z,13.14
2017-08-21T03:11:42.468Z,13.1
2017-08-21T03:12:23.000Z,13.11
2017-08-21T03:13:03.541Z,13.07
2017-08-21T03:13:44.079Z,13.08
2017-08-21T03:14:24.615Z,13.12
2017-08-21T03:15:05.161Z,13.12
2017-08-21T03:15:45.693Z,13.08
2017-08-21T03:16:26.230Z,13.1
2017-08-21T03:17:06.766Z,13.08
2017-08-21T03:17:47.295Z,13.1
2017-08-21T03:18:27.835Z,13.08
2017-08-21T03:19:08.361Z,12.96
2017-08-21T03:19:48.887Z,13.05
2017-08-21T03:20:29.420Z,13
2017-08-21T03:21:09.947Z,13.01
2017-08-21T03:21:50.484Z,13.03
2017-08-21T03:22:31.020Z,13.07
2017-08-21T03:23:11.564Z,12.97
2017-08-21T03:23:52.101Z,13.04
2017-08-21T03:24:32.639Z,13.11
2017-08-21T03:25:13.176Z,13.04
2017-08-21T03:25:53.711Z,13.03
2017-08-21T03:26:34.248Z,13.03
2017-08-21T03:27:14.795Z,12.93
2017-08-21T03:27:55.337Z,12.97
2017-08-21T03:28:35.872Z,12.96
2017-08-21T03:29:16.411Z,12.97
2017-08-21T03:29:56.936Z,12.93
2017-08-21T03:30:37.485Z,12.95
2017-08-21T03:31:17.994Z,12.97
2017-08-21T03:31:58.529Z,12.9
2017-08-21T03:32:39.073Z,12.92
2017-08-21T03:33:19.608Z,12.83
2017-08-21T03:34:00.140Z,12.89
2017-08-21T03:34:40.678Z,12.86
2017-08-21T03:35:21.210Z,12.79
2017-08-21T03:36:01.778Z,12.86
2017-08-21T03:36:42.313Z,12.83
2017-08-21T03:37:22.837Z,12.82
2017-08-21T03:38:03.368Z,12.83
2017-08-21T03:38:43.898Z,12.79
2017-08-21T03:39:24.433Z,12.86
2017-08-21T03:40:04.971Z,12.82
2017-08-21T03:40:45.511Z,12.89
2017-08-21T03:41:26.052Z,12.83
2017-08-21T03:42:06.591Z,12.82
2017-08-21T03:42:47.133Z,12.78
2017-08-21T03:43:27.671Z,12.7
2017-08-21T03:44:08.205Z,12.68
2017-08-21T03:44:48.730Z,12.6
2017-08-21T03:45:29.273Z,12.67
2017-08-21T03:46:09.805Z,12.71
2017-08-21T03:46:50.343Z,12.67
2017-08-21T03:47:30.883Z,12.67
2017-08-21T03:48:11.425Z,12.65
2017-08-21T03:48:51.960Z,12.64
2017-08-21T03:49:32.499Z,12.67
2017-08-21T03:50:13.034Z,12.65
2017-08-21T03:50:53.571Z,12.68
2017-08-21T03:51:34.153Z,12.64
2017-08-21T03:52:14.712Z,12.65
2017-08-21T03:52:55.248Z,12.62
2017-08-21T03:53:35.785Z,12.53
2017-08-21T03:54:16.308Z,12.54
2017-08-21T03:54:56.843Z,12.49
2017-08-21T03:55:37.383Z,12.47
2017-08-21T03:56:17.922Z,12.53
2017-08-21T03:56:58.459Z,12.53
2017-08-21T03:57:39.033Z,12.42
2017-08-21T03:58:19.812Z,12.5
2017-08-21T03:59:00.630Z,12.45
2017-08-21T03:59:41.401Z,12.46
2017-08-21T04:00:22.162Z,12.42
2017-08-21T04:01:02.878Z,12.45
2017-08-21T04:01:43.391Z,12.46
2017-08-21T04:02:23.934Z,12.46
2017-08-21T04:03:04.462Z,12.47
2017-08-21T04:03:44.987Z,12.46
2017-08-21T04:04:25.527Z,12.42
2017-08-21T04:05:06.064Z,12.42
2017-08-21T04:05:46.606Z,12.45
2017-08-21T04:06:27.145Z,12.46
2017-08-21T04:07:07.678Z,12.41
2017-08-21T04:07:48.172Z,12.46
2017-08-21T04:08:28.702Z,12.41
2017-08-21T04:09:09.235Z,12.46
2017-08-21T04:09:49.763Z,12.39
2017-08-21T04:10:30.294Z,12.45
2017-08-21T04:11:10.831Z,12.42
2017-08-21T04:11:51.357Z,12.39
2017-08-21T04:12:31.881Z,12.37
2017-08-21T04:13:12.400Z,12.35
2017-08-21T04:13:52.961Z,12.41
2017-08-21T04:14:33.476Z,12.38
2017-08-21T04:15:14.007Z,12.34
2017-08-21T04:15:54.540Z,12.39
2017-08-21T04:16:35.076Z,12.37
2017-08-21T04:17:15.601Z,12.35
2017-08-21T04:17:56.132Z,12.34
2017-08-21T04:18:36.659Z,12.34
2017-08-21T04:19:17.186Z,12.38
2017-08-21T04:19:57.712Z,12.34
2017-08-21T04:20:38.245Z,12.35
2017-08-21T04:21:18.787Z,12.39
2017-08-21T04:21:59.326Z,12.34
2017-08-21T04:22:39.858Z,12.37
2017-08-21T04:23:20.392Z,12.38
2017-08-21T04:24:00.920Z,12.46
2017-08-21T04:24:41.457Z,12.47
2017-08-21T04:25:21.989Z,12.45
2017-08-21T04:26:02.529Z,12.47
2017-08-21T04:26:43.102Z,12.47
2017-08-21T04:27:23.640Z,12.56
2017-08-21T04:28:04.171Z,12.53
2017-08-21T04:28:44.696Z,12.49
2017-08-21T04:29:25.231Z,12.54
2017-08-21T04:30:05.766Z,12.59
2017-08-21T04:30:46.316Z,12.57
2017-08-21T04:31:26.821Z,12.6
2017-08-21T04:32:07.399Z,12.6
2017-08-21T04:32:47.934Z,12.64
2017-08-21T04:33:28.453Z,12.64
2017-08-21T04:34:08.996Z,12.56
2017-08-21T04:34:49.527Z,12.6
2017-08-21T04:35:30.054Z,12.57
2017-08-21T04:36:10.595Z,12.64
2017-08-21T04:36:51.118Z,12.6
2017-08-21T04:37:31.690Z,12.65
2017-08-21T04:38:12.181Z,12.62
2017-08-21T04:38:52.715Z,12.68
2017-08-21T04:39:33.249Z,12.65
2017-08-21T04:40:13.790Z,12.67
2017-08-21T04:40:54.315Z,12.62
2017-08-21T04:41:34.856Z,12.68
2017-08-21T04:42:15.397Z,12.71
2017-08-21T04:42:55.961Z,12.68
2017-08-21T04:43:36.495Z,12.7
2017-08-21T04:44:17.036Z,12.68
2017-08-21T04:44:57.555Z,12.71
2017-08-21T04:45:38.119Z,12.72
2017-08-21T04:46:18.656Z,12.68
2017-08-21T04:46:59.156Z,12.68
2017-08-21T04:47:39.670Z,12.68
2017-08-21T04:48:20.190Z,12.64
2017-08-21T04:49:00.711Z,12.7
2017-08-21T04:49:41.339Z,12.67
2017-08-21T04:50:21.869Z,12.64
2017-08-21T04:51:02.406Z,12.71
2017-08-21T04:51:42.922Z,12.68
2017-08-21T04:52:23.463Z,12.77
2017-08-21T04:53:03.999Z,12.68
2017-08-21T04:53:44.529Z,12.7
2017-08-21T04:54:25.050Z,12.71
2017-08-21T04:55:05.572Z,12.67
2017-08-21T04:55:46.105Z,12.7
2017-08-21T04:56:26.632Z,12.7
2017-08-21T04:57:07.171Z,12.79
2017-08-21T04:57:47.699Z,12.79
2017-08-21T04:58:28.237Z,12.83
2017-08-21T04:59:08.781Z,12.71
2017-08-21T04:59:49.321Z,12.71
2017-08-21T05:00:29.859Z,12.68
2017-08-21T05:01:10.382Z,12.78
2017-08-21T05:01:50.915Z,12.77
2017-08-21T05:02:31.450Z,12.7
2017-08-21T05:03:11.969Z,12.79
2017-08-21T05:03:52.505Z,12.77
2017-08-21T05:04:33.024Z,12.78
2017-08-21T05:05:13.585Z,12.86
2017-08-21T05:05:54.120Z,12.77
2017-08-21T05:06:34.655Z,12.86
2017-08-21T05:07:15.197Z,12.86
2017-08-21T05:07:55.728Z,12.86
2017-08-21T05:08:36.266Z,12.86
2017-08-21T05:09:16.807Z,12.85
2017-08-21T05:09:57.338Z,12.89
2017-08-21T05:10:37.874Z,12.85
2017-08-21T05:11:18.413Z,12.86
2017-08-21T05:11:58.950Z,12.83
2017-08-21T05:12:39.482Z,12.82
2017-08-21T05:13:20.011Z,12.89
2017-08-21T05:14:00.562Z,12.92
2017-08-21T05:14:41.086Z,12.93
2017-08-21T05:15:21.626Z,12.93
2017-08-21T05:16:02.154Z,12.93
2017-08-21T05:16:42.678Z,12.92
2017-08-21T05:17:23.208Z,12.93
2017-08-21T05:18:03.744Z,12.97
2017-08-21T05:18:44.275Z,12.96
2017-08-21T05:19:24.806Z,12.93
2017-08-21T05:20:05.344Z,12.96
2017-08-21T05:20:45.876Z,12.9
2017-08-21T05:21:26.413Z,12.95
2017-08-21T05:22:06.904Z,13
2017-08-21T05:22:47.441Z,12.92
2017-08-21T05:23:27.980Z,12.93
2017-08-21T05:24:08.520Z,13.04
2017-08-21T05:24:49.052Z,12.96
2017-08-21T05:25:29.592Z,13.03
2017-08-21T05:26:10.130Z,13.03
2017-08-21T05:26:50.668Z,13.04
2017-08-21T05:27:31.193Z,13.04
2017-08-21T05:28:11.730Z,13.03
2017-08-21T05:28:52.258Z,13
2017-08-21T05:29:32.805Z,13.12
2017-08-21T05:30:13.335Z,13.08
2017-08-21T05:30:53.866Z,13.12
2017-08-21T05:31:34.406Z,13.15
2017-08-21T05:32:14.943Z,13.19
2017-08-21T05:32:55.482Z,13.17
2017-08-21T05:33:36.013Z,13.22
2017-08-21T05:34:16.560Z,13.17
2017-08-21T05:34:57.092Z,13.14
2017-08-21T05:35:37.637Z,13.17
2017-08-21T05:36:18.173Z,13.15
2017-08-21T05:36:58.710Z,13.26
2017-08-21T05:37:39.246Z,13.14
2017-08-21T05:38:19.767Z,13.17
2017-08-21T05:39:00.310Z,13.15
2017-08-21T05:39:40.849Z,13.12
2017-08-21T05:40:21.387Z,13.15
2017-08-21T05:41:01.921Z,13.2
2017-08-21T05:41:42.458Z,13.2
2017-08-21T05:42:23.002Z,13.17
2017-08-21T05:43:03.531Z,13.22
2017-08-21T05:43:44.067Z,13.22
2017-08-21T05:44:24.598Z,13.2
2017-08-21T05:45:05.135Z,13.23
2017-08-21T05:45:45.677Z,13.23
2017-08-21T05:46:26.217Z,13.28
2017-08-21T05:47:06.755Z,13.28
2017-08-21T05:47:47.290Z,13.25
2017-08-21T05:48:27.824Z,13.25
2017-08-21T05:49:08.366Z,13.23
2017-08-21T05:49:48.902Z,13.28
2017-08-21T05:50:29.444Z,13.25
2017-08-21T05:51:09.983Z,13.23
2017-08-21T05:51:50.524Z,13.22
2017-08-21T05:52:31.067Z,13.23
2017-08-21T05:53:11.605Z,13.25
2017-08-21T05:53:52.145Z,13.26
2017-08-21T05:54:32.680Z,13.26
2017-08-21T05:55:13.226Z,13.3
2017-08-21T05:55:53.760Z,13.23
2017-08-21T05:56:34.289Z,13.25
2017-08-21T05:57:14.824Z,13.3
2017-08-21T05:57:55.372Z,13.3
2017-08-21T05:58:35.896Z,13.26
2017-08-21T05:59:16.427Z,13.29
2017-08-21T05:59:56.964Z,13.29
2017-08-21T06:00:37.501Z,13.26
2017-08-21T06:01:18.039Z,13.28
2017-08-21T06:01:58.577Z,13.23
2017-08-21T06:02:39.118Z,13.23
2017-08-21T06:03:19.661Z,13.3
2017-08-21T06:04:00.192Z,13.25
2017-08-21T06:04:40.728Z,13.25
2017-08-21T06:05:21.264Z,13.26
2017-08-21T06:06:01.799Z,13.23
2017-08-21T06:06:42.346Z,13.28
2017-08-21T06:07:22.882Z,13.26
2017-08-21T06:08:03.425Z,13.28
2017-08-21T06:08:43.962Z,13.28
2017-08-21T06:09:24.496Z,13.3
2017-08-21T06:10:05.047Z,13.3
2017-08-21T06:10:45.570Z,13.28
2017-08-21T06:11:26.106Z,13.3
2017-08-21T06:12:06.641Z,13.29
2017-08-21T06:12:47.180Z,13.3
2017-08-21T06:13:27.719Z,13.44
2017-08-21T06:14:08.256Z,13.33
2017-08-21T06:14:48.802Z,13.45
2017-08-21T06:15:29.333Z,13.41
2017-08-21T06:16:09.877Z,13.41
2017-08-21T06:16:50.404Z,13.38
2017-08-21T06:17:30.924Z,13.39
2017-08-21T06:18:11.463Z,13.44
2017-08-21T06:18:51.997Z,13.46
2017-08-21T06:19:32.538Z,13.45
2017-08-21T06:20:13.079Z,13.49
2017-08-21T06:20:53.615Z,13.48
2017-08-21T06:21:34.155Z,13.51
2017-08-21T06:22:14.698Z,13.55
2017-08-21T06:22:55.231Z,13.57
2017-08-21T06:23:35.768Z,13.54
2017-08-21T06:24:16.297Z,13.57
2017-08-21T06:24:56.831Z,13.63
2017-08-21T06:25:37.362Z,13.66
2017-08-21T06:26:17.890Z,13.69
2017-08-21T06:26:58.426Z,13.66
2017-08-21T06:27:38.970Z,13.75
2017-08-21T06:28:19.485Z,13.81
2017-08-21T06:29:00.026Z,13.81
2017-08-21T06:29:40.567Z,13.81
2017-08-21T06:30:21.102Z,13.82
2017-08-21T06:31:01.645Z,13.7
2017-08-21T06:31:42.195Z,13.82
2017-08-21T06:32:22.736Z,13.82
2017-08-21T06:33:03.276Z,13.82
2017-08-21T06:33:43.811Z,13.77
2017-08-21T06:34:24.350Z,13.78
2017-08-21T06:35:04.891Z,13.84
2017-08-21T06:35:45.424Z,13.82
2017-08-21T06:36:25.963Z,13.82
2017-08-21T06:37:06.500Z,13.82
2017-08-21T06:37:47.022Z,13.92
2017-08-21T06:38:27.560Z,13.81
2017-08-21T06:39:08.096Z,13.95
2017-08-21T06:39:48.633Z,13.88
2017-08-21T06:40:29.164Z,13.88
2017-08-21T06:41:09.694Z,13.91
2017-08-21T06:41:50.280Z,13.91
2017-08-21T06:42:30.825Z,13.95
2017-08-21T06:43:11.379Z,14.04
2017-08-21T06:43:51.917Z,13.97
2017-08-21T06:44:32.456Z,13.99
2017-08-21T06:45:13.039Z,14.02
2017-08-21T06:45:53.555Z,14.02
2017-08-21T06:46:34.094Z,13.99
2017-08-21T06:47:14.628Z,14.03
2017-08-21T06:47:55.162Z,14.04
2017-08-21T06:48:35.705Z,13.99
2017-08-21T06:49:16.237Z,14.07
2017-08-21T06:49:56.816Z,14.03
2017-08-21T06:50:37.342Z,14.02
2017-08-21T06:51:17.895Z,14.12
2017-08-21T06:51:58.430Z,14.12
2017-08-21T06:52:38.965Z,14.18
2017-08-21T06:53:19.519Z,14.15
2017-08-21T06:54:00.117Z,14.21
2017-08-21T06:54:40.665Z,14.21
2017-08-21T06:55:21.211Z,14.25
2017-08-21T06:56:01.764Z,14.2
2017-08-21T06:56:42.317Z,14.21
2017-08-21T06:57:22.857Z,14.29
2017-08-21T06:58:03.402Z,14.28
2017-08-21T06:58:43.971Z,14.24
2017-08-21T06:59:24.512Z,14.24
2017-08-21T07:00:05.056Z,14.42
2017-08-21T07:00:45.607Z,14.39
2017-08-21T07:01:26.154Z,14.39
2017-08-21T07:02:06.675Z,14.39
2017-08-21T07:02:47.199Z,14.42
2017-08-21T07:03:27.739Z,14.5
2017-08-21T07:04:08.278Z,14.45
2017-08-21T07:04:48.823Z,14.42
2017-08-21T07:05:29.354Z,14.51
2017-08-21T07:06:09.893Z,14.58
2017-08-21T07:06:50.444Z,14.6
2017-08-21T07:07:30.982Z,14.6
2017-08-21T07:08:11.523Z,14.62
2017-08-21T07:08:52.051Z,14.61
2017-08-21T07:09:32.589Z,14.64
2017-08-21T07:10:13.129Z,14.7
2017-08-21T07:10:53.659Z,14.75
2017-08-21T07:11:34.192Z,14.77
2017-08-21T07:12:14.733Z,14.77
2017-08-21T07:12:55.264Z,14.75
2017-08-21T07:13:35.799Z,14.77
2017-08-21T07:14:16.340Z,14.84
2017-08-21T07:14:56.880Z,14.86
2017-08-21T07:15:37.408Z,14.84
2017-08-21T07:16:17.945Z,14.83
2017-08-21T07:16:58.490Z,14.88
2017-08-21T07:17:39.028Z,14.96
2017-08-21T07:18:19.557Z,14.95
2017-08-21T07:19:00.086Z,14.94
2017-08-21T07:19:40.636Z,15.02
2017-08-21T07:20:21.177Z,15.09
2017-08-21T07:21:01.717Z,15.16
2017-08-21T07:21:42.258Z,15.03
2017-08-21T07:22:22.792Z,15.17
2017-08-21T07:23:03.310Z,15.2
2017-08-21T07:23:43.858Z,15.25
2017-08-21T07:24:24.373Z,15.2
2017-08-21T07:25:04.898Z,15.29
2017-08-21T07:25:45.417Z,15.38
2017-08-21T07:26:25.953Z,15.31
2017-08-21T07:27:06.496Z,15.34
2017-08-21T07:27:47.032Z,15.44
2017-08-21T07:28:27.568Z,15.49
2017-08-21T07:29:08.109Z,15.5
2017-08-21T07:29:48.649Z,15.47
2017-08-21T07:30:29.177Z,15.51
2017-08-21T07:31:09.717Z,15.64
2017-08-21T07:31:50.258Z,15.57
2017-08-21T07:32:30.799Z,15.67
2017-08-21T07:33:11.343Z,15.78
2017-08-21T07:33:51.880Z,15.76
2017-08-21T07:34:32.419Z,15.89
2017-08-21T07:35:12.961Z,15.86
2017-08-21T07:35:53.504Z,16.04
2017-08-21T07:36:34.050Z,16.01
2017-08-21T07:37:14.578Z,16.09
2017-08-21T07:37:55.116Z,16.17
2017-08-21T07:38:35.650Z,16.24
2017-08-21T07:39:16.214Z,16.23
2017-08-21T07:39:56.749Z,16.3
2017-08-21T07:40:37.291Z,16.28
2017-08-21T07:41:17.835Z,16.27
2017-08-21T07:41:58.377Z,16.35
2017-08-21T07:42:38.920Z,16.38
2017-08-21T07:43:19.462Z,16.43
2017-08-21T07:44:00.012Z,16.56
2017-08-21T07:44:40.556Z,16.57
2017-08-21T07:45:21.080Z,16.68
2017-08-21T07:46:01.653Z,16.68
2017-08-21T07:46:42.166Z,16.67
2017-08-21T07:47:22.701Z,16.79
2017-08-21T07:48:03.244Z,16.68
2017-08-21T07:48:43.794Z,16.78
2017-08-21T07:49:24.332Z,16.81
2017-08-21T07:50:04.877Z,16.79
2017-08-21T07:50:45.406Z,16.86
2017-08-21T07:51:25.950Z,16.94
2017-08-21T07:52:06.485Z,16.88
2017-08-21T07:52:47.031Z,16.97
2017-08-21T07:53:27.569Z,16.93
2017-08-21T07:54:08.119Z,16.94
2017-08-21T07:54:48.665Z,16.94
2017-08-21T07:55:29.205Z,16.88
2017-08-21T07:56:09.751Z,16.94
2017-08-21T07:56:50.296Z,16.94
2017-08-21T07:57:30.849Z,17.03
2017-08-21T07:58:11.392Z,17.07
2017-08-21T07:58:51.933Z,17.23
2017-08-21T07:59:32.481Z,17.26
2017-08-21T08:00:13.028Z,17.28
2017-08-21T08:00:53.582Z,17.36
2017-08-21T08:01:34.130Z,17.49
2017-08-21T08:02:14.675Z,17.54
2017-08-21T08:02:55.220Z,17.7
2017-08-21T08:03:35.763Z,17.74
2017-08-21T08:04:16.309Z,17.96
2017-08-21T08:04:56.828Z,17.95
2017-08-21T08:05:37.361Z,17.96
2017-08-21T08:06:17.907Z,18.05
2017-08-21T08:06:58.440Z,18.18
2017-08-21T08:07:38.977Z,18.25
2017-08-21T08:08:19.502Z,18.37
2017-08-21T08:09:00.046Z,18.35
2017-08-21T08:09:40.589Z,18.5
2017-08-21T08:10:21.132Z,18.54
2017-08-21T08:11:01.672Z,18.66
2017-08-21T08:11:42.219Z,18.67
2017-08-21T08:12:22.772Z,18.8
2017-08-21T08:13:03.298Z,19
2017-08-21T08:13:43.844Z,19.08
2017-08-21T08:14:24.387Z,19.18
2017-08-21T08:15:04.930Z,19.21
2017-08-21T08:15:45.478Z,19.23
2017-08-21T08:16:26.012Z,19.31
2017-08-21T08:17:06.557Z,19.36
2017-08-21T08:17:47.095Z,19.43
2017-08-21T08:18:27.639Z,19.47
2017-08-21T08:19:08.186Z,19.66
2017-08-21T08:19:48.731Z,19.73
2017-08-21T08:20:29.314Z,19.76
2017-08-21T08:21:09.848Z,19.8
2017-08-21T08:21:50.384Z,19.8
2017-08-21T08:22:30.937Z,19.77
2017-08-21T08:23:11.478Z,19.76
2017-08-21T08:23:52.029Z,19.87
2017-08-21T08:24:32.568Z,19.95
2017-08-21T08:25:13.108Z,20.01
2017-08-21T08:25:53.634Z,20.16
2017-08-21T08:26:34.172Z,20.14
2017-08-21T08:27:14.708Z,20.31
2017-08-21T08:27:55.259Z,20.42
2017-08-21T08:28:35.803Z,20.47
2017-08-21T08:29:16.356Z,20.54
2017-08-21T08:29:56.894Z,20.47
2017-08-21T08:30:37.441Z,20.43
2017-08-21T08:31:18.290Z,20.57
2017-08-21T08:31:58.831Z,20.55
2017-08-21T08:32:39.360Z,20.39
2017-08-21T08:33:19.912Z,20.21
2017-08-21T08:34:00.455Z,20.2
2017-08-21T08:34:41.000Z,20.14
2017-08-21T08:35:21.574Z,20.01
2017-08-21T08:36:02.104Z,19.88
2017-08-21T08:36:42.653Z,19.74
2017-08-21T08:37:23.182Z,19.58
2017-08-21T08:38:03.724Z,19.44
2017-08-21T08:38:44.268Z,19.26
2017-08-21T08:39:24.812Z,19.36
2017-08-21T08:40:05.357Z,19.43
2017-08-21T08:40:45.909Z,19.47
2017-08-21T08:41:26.456Z,19.66
2017-08-21T08:42:07.003Z,19.8
2017-08-21T08:42:47.547Z,19.87
2017-08-21T08:43:28.090Z,19.98
2017-08-21T08:44:08.634Z,19.95
2017-08-21T08:44:49.184Z,20.01
2017-08-21T08:45:29.727Z,19.96